sensor_id;sensor_type;location;lat;lon;timestamp;pressure;altitude;pressure_sealevel;temperature;humidity
52983;BME280;48698;45.736;13.926;2023-04-29T00:03:52;97346.84;;;5.92;100.00
52983;BME280;48698;45.736;13.926;2023-04-29T00:09:02;97530.16;;;6.95;100.00
52983;BME280;48698;45.736;13.926;2023-04-29T00:14:06;97602.81;;;7.50;100.00
52983;BME280;48698;45.736;13.926;2023-04-29T00:19:08;97472.56;;;7.05;100.00
52983;BME280;48698;45.736;13.926;2023-04-29T00:24:11;97358.44;;;6.55;100.00
52983;BME280;48698;45.736;13.926;2023-04-29T00:29:16;97312.22;;;6.01;100.00
52983;BME280;48698;45.736;13.926;2023-04-29T00:34:19;97359.03;;;6.18;100.00
52983;BME280;48698;45.736;13.926;2023-04-29T00:39:22;97359.97;;;6.39;100.00
52983;BME280;48698;45.736;13.926;2023-04-29T00:44:24;97274.84;;;5.67;100.00
52983;BME280;48698;45.736;13.926;2023-04-29T00:49:27;97352.97;;;5.93;100.00
52983;BME280;48698;45.736;13.926;2023-04-29T00:54:30;97278.88;;;5.29;100.00
52983;BME280;48698;45.736;13.926;2023-04-29T00:59:34;97517.34;;;7.08;100.00
52983;BME280;48698;45.736;13.926;2023-04-29T01:04:37;97511.22;;;7.29;100.00
52983;BME280;48698;45.736;13.926;2023-04-29T01:15:21;97213.31;;;5.46;100.00
52983;BME280;48698;45.736;13.926;2023-04-29T01:20:27;97470.97;;;6.79;100.00
52983;BME280;48698;45.736;13.926;2023-04-29T01:25:33;97454.38;;;6.97;100.00
52983;BME280;48698;45.736;13.926;2023-04-29T01:36:07;97527.72;;;7.56;100.00
52983;BME280;48698;45.736;13.926;2023-04-29T01:41:26;97496.34;;;7.26;100.00
52983;BME280;48698;45.736;13.926;2023-04-29T01:46:34;97390.19;;;6.07;100.00
52983;BME280;48698;45.736;13.926;2023-04-29T01:51:38;97312.28;;;6.00;100.00
52983;BME280;48698;45.736;13.926;2023-04-29T01:56:40;97480.91;;;7.16;100.00
52983;BME280;48698;45.736;13.926;2023-04-29T02:01:43;97401.69;;;6.51;100.00
52983;BME280;48698;45.736;13.926;2023-04-29T02:06:46;97218.72;;;5.65;100.00
52983;BME280;48698;45.736;13.926;2023-04-29T02:11:49;97532.69;;;7.20;100.00
52983;BME280;48698;45.736;13.926;2023-04-29T02:16:52;97456.72;;;7.05;100.00
52983;BME280;48698;45.736;13.926;2023-04-29T02:21:55;97509.59;;;7.47;100.00
52983;BME280;48698;45.736;13.926;2023-04-29T02:26:57;97499.47;;;7.36;100.00
52983;BME280;48698;45.736;13.926;2023-04-29T02:32:01;97415.72;;;6.74;100.00
52983;BME280;48698;45.736;13.926;2023-04-29T02:37:03;97462.78;;;7.50;100.00
52983;BME280;48698;45.736;13.926;2023-04-29T02:42:07;97409.69;;;7.14;100.00
52983;BME280;48698;45.736;13.926;2023-04-29T02:47:10;97417.91;;;7.28;100.00
52983;BME280;48698;45.736;13.926;2023-04-29T02:52:12;97408.41;;;7.45;100.00
52983;BME280;48698;45.736;13.926;2023-04-29T02:57:15;97226.47;;;6.36;100.00
52983;BME280;48698;45.736;13.926;2023-04-29T03:02:18;97420.50;;;7.50;100.00
52983;BME280;48698;45.736;13.926;2023-04-29T03:07:21;97279.25;;;6.76;100.00
52983;BME280;48698;45.736;13.926;2023-04-29T03:12:24;97267.19;;;6.71;100.00
52983;BME280;48698;45.736;13.926;2023-04-29T03:17:26;97377.56;;;7.03;100.00
52983;BME280;48698;45.736;13.926;2023-04-29T03:22:29;97318.38;;;6.89;100.00
52983;BME280;48698;45.736;13.926;2023-04-29T03:27:32;97326.66;;;7.00;100.00
52983;BME280;48698;45.736;13.926;2023-04-29T03:32:35;97450.16;;;7.97;100.00
52983;BME280;48698;45.736;13.926;2023-04-29T03:37:37;97448.97;;;7.84;100.00
52983;BME280;48698;45.736;13.926;2023-04-29T03:42:41;97389.91;;;7.65;100.00
52983;BME280;48698;45.736;13.926;2023-04-29T03:47:44;97411.66;;;7.71;100.00
52983;BME280;48698;45.736;13.926;2023-04-29T03:52:46;97148.31;;;5.92;100.00
52983;BME280;48698;45.736;13.926;2023-04-29T03:57:49;97445.75;;;7.77;100.00
52983;BME280;48698;45.736;13.926;2023-04-29T04:02:52;97405.69;;;7.66;100.00
52983;BME280;48698;45.736;13.926;2023-04-29T04:08:04;97406.69;;;7.64;100.00
52983;BME280;48698;45.736;13.926;2023-04-29T04:13:07;97263.78;;;6.69;100.00
52983;BME280;48698;45.736;13.926;2023-04-29T04:18:09;97438.31;;;8.06;100.00
52983;BME280;48698;45.736;13.926;2023-04-29T04:23:12;97432.63;;;8.15;100.00
52983;BME280;48698;45.736;13.926;2023-04-29T04:28:15;97380.75;;;7.92;100.00
52983;BME280;48698;45.736;13.926;2023-04-29T04:33:18;97251.06;;;6.99;100.00
52983;BME280;48698;45.736;13.926;2023-04-29T04:38:20;97448.22;;;8.21;100.00
52983;BME280;48698;45.736;13.926;2023-04-29T04:43:26;97178.16;;;6.76;100.00
52983;BME280;48698;45.736;13.926;2023-04-29T04:48:29;97404.34;;;8.36;100.00
52983;BME280;48698;45.736;13.926;2023-04-29T04:53:33;97251.13;;;7.36;100.00
52983;BME280;48698;45.736;13.926;2023-04-29T04:58:35;97358.56;;;8.15;100.00
52983;BME280;48698;45.736;13.926;2023-04-29T05:03:38;97432.44;;;8.58;100.00
52983;BME280;48698;45.736;13.926;2023-04-29T05:08:41;97404.66;;;8.29;100.00
52983;BME280;48698;45.736;13.926;2023-04-29T05:13:45;97240.63;;;7.55;100.00
52983;BME280;48698;45.736;13.926;2023-04-29T05:18:47;97205.22;;;7.20;100.00
52983;BME280;48698;45.736;13.926;2023-04-29T05:23:50;97398.00;;;8.77;100.00
52983;BME280;48698;45.736;13.926;2023-04-29T05:28:53;97414.50;;;9.01;100.00
52983;BME280;48698;45.736;13.926;2023-04-29T05:34:06;97308.03;;;8.58;100.00
52983;BME280;48698;45.736;13.926;2023-04-29T05:39:09;97393.81;;;8.90;100.00
52983;BME280;48698;45.736;13.926;2023-04-29T05:44:11;97212.47;;;7.91;100.00
52983;BME280;48698;45.736;13.926;2023-04-29T05:49:14;97461.19;;;9.56;100.00
52983;BME280;48698;45.736;13.926;2023-04-29T05:54:17;97495.78;;;10.06;100.00
52983;BME280;48698;45.736;13.926;2023-04-29T05:59:20;97295.53;;;9.13;100.00
52983;BME280;48698;45.736;13.926;2023-04-29T06:04:23;97508.97;;;10.25;100.00
52983;BME280;48698;45.736;13.926;2023-04-29T06:09:26;97499.50;;;10.54;100.00
52983;BME280;48698;45.736;13.926;2023-04-29T06:14:36;97484.91;;;10.45;100.00
52983;BME280;48698;45.736;13.926;2023-04-29T06:19:39;97275.81;;;9.36;100.00
52983;BME280;48698;45.736;13.926;2023-04-29T06:24:42;97432.38;;;10.34;100.00
52983;BME280;48698;45.736;13.926;2023-04-29T06:29:45;97226.38;;;9.35;100.00
52983;BME280;48698;45.736;13.926;2023-04-29T06:34:54;97415.56;;;10.98;100.00
52983;BME280;48698;45.736;13.926;2023-04-29T06:40:06;97500.59;;;11.45;100.00
52983;BME280;48698;45.736;13.926;2023-04-29T06:45:09;97512.25;;;11.58;100.00
52983;BME280;48698;45.736;13.926;2023-04-29T06:50:12;97372.72;;;10.88;100.00
52983;BME280;48698;45.736;13.926;2023-04-29T06:55:15;97218.59;;;10.29;100.00
52983;BME280;48698;45.736;13.926;2023-04-29T07:00:18;97414.09;;;11.69;100.00
52983;BME280;48698;45.736;13.926;2023-04-29T07:05:22;97236.91;;;10.49;100.00
52983;BME280;48698;45.736;13.926;2023-04-29T07:10:25;97517.53;;;12.49;100.00
52983;BME280;48698;45.736;13.926;2023-04-29T07:15:29;97383.38;;;11.93;100.00
52983;BME280;48698;45.736;13.926;2023-04-29T07:20:35;97460.25;;;12.70;100.00
52983;BME280;48698;45.736;13.926;2023-04-29T07:25:38;97335.75;;;12.03;100.00
52983;BME280;48698;45.736;13.926;2023-04-29T07:30:42;97289.28;;;11.80;100.00
52983;BME280;48698;45.736;13.926;2023-04-29T07:35:44;97408.97;;;12.81;100.00
52983;BME280;48698;45.736;13.926;2023-04-29T07:40:47;97496.47;;;13.43;100.00
52983;BME280;48698;45.736;13.926;2023-04-29T07:45:51;97508.50;;;13.63;100.00
52983;BME280;48698;45.736;13.926;2023-04-29T07:50:53;97222.38;;;12.01;100.00
52983;BME280;48698;45.736;13.926;2023-04-29T07:55:56;97271.56;;;12.36;100.00
52983;BME280;48698;45.736;13.926;2023-04-29T08:01:08;97511.56;;;13.84;100.00
52983;BME280;48698;45.736;13.926;2023-04-29T08:06:11;97502.38;;;13.75;100.00
52983;BME280;48698;45.736;13.926;2023-04-29T08:11:15;97450.06;;;13.85;100.00
52983;BME280;48698;45.736;13.926;2023-04-29T08:16:18;97435.13;;;13.95;100.00
52983;BME280;48698;45.736;13.926;2023-04-29T08:21:31;97434.31;;;13.95;100.00
52983;BME280;48698;45.736;13.926;2023-04-29T08:26:34;97286.22;;;13.23;100.00
52983;BME280;48698;45.736;13.926;2023-04-29T08:31:36;97283.94;;;13.69;100.00
52983;BME280;48698;45.736;13.926;2023-04-29T08:36:39;97357.09;;;14.30;100.00
52983;BME280;48698;45.736;13.926;2023-04-29T08:41:51;97282.00;;;13.96;100.00
52983;BME280;48698;45.736;13.926;2023-04-29T08:46:56;97477.09;;;14.96;100.00
52983;BME280;48698;45.736;13.926;2023-04-29T08:52:02;97446.03;;;15.19;100.00
52983;BME280;48698;45.736;13.926;2023-04-29T08:57:05;97449.22;;;15.24;100.00
52983;BME280;48698;45.736;13.926;2023-04-29T09:02:12;97518.09;;;16.06;100.00
52983;BME280;48698;45.736;13.926;2023-04-29T09:07:19;97444.16;;;15.68;100.00
52983;BME280;48698;45.736;13.926;2023-04-29T09:12:21;97479.88;;;16.03;100.00
52983;BME280;48698;45.736;13.926;2023-04-29T09:17:45;97457.41;;;16.28;100.00
52983;BME280;48698;45.736;13.926;2023-04-29T09:22:53;97481.66;;;16.84;100.00
52983;BME280;48698;45.736;13.926;2023-04-29T09:27:56;97484.59;;;16.81;100.00
52983;BME280;48698;45.736;13.926;2023-04-29T09:33:07;97273.59;;;15.92;100.00
52983;BME280;48698;45.736;13.926;2023-04-29T09:38:14;97347.69;;;16.49;100.00
52983;BME280;48698;45.736;13.926;2023-04-29T09:43:17;97400.59;;;16.69;100.00
52983;BME280;48698;45.736;13.926;2023-04-29T09:48:20;97432.13;;;16.54;100.00
52983;BME280;48698;45.736;13.926;2023-04-29T09:53:29;97459.06;;;16.53;100.00
52983;BME280;48698;45.736;13.926;2023-04-29T09:58:34;97509.00;;;17.11;100.00
52983;BME280;48698;45.736;13.926;2023-04-29T10:03:42;97474.84;;;18.21;100.00
52983;BME280;48698;45.736;13.926;2023-04-29T10:08:46;97482.94;;;18.42;100.00
52983;BME280;48698;45.736;13.926;2023-04-29T10:13:51;97410.94;;;17.72;100.00
52983;BME280;48698;45.736;13.926;2023-04-29T10:18:55;97494.69;;;19.92;96.19
52983;BME280;48698;45.736;13.926;2023-04-29T10:23:58;97497.50;;;19.01;100.00
52983;BME280;48698;45.736;13.926;2023-04-29T10:29:02;97253.53;;;18.11;100.00
52983;BME280;48698;45.736;13.926;2023-04-29T10:38:53;97476.03;;;21.41;89.31
52983;BME280;48698;45.736;13.926;2023-04-29T10:43:58;97479.56;;;20.68;95.28
52983;BME280;48698;45.736;13.926;2023-04-29T10:49:05;97367.25;;;21.84;90.06
52983;BME280;48698;45.736;13.926;2023-04-29T10:54:19;97460.66;;;21.24;97.33
52983;BME280;48698;45.736;13.926;2023-04-29T11:05:08;97404.31;;;19.50;100.00
52983;BME280;48698;45.736;13.926;2023-04-29T11:10:35;97428.19;;;20.22;100.00
52983;BME280;48698;45.736;13.926;2023-04-29T11:15:40;97447.75;;;20.52;100.00
52983;BME280;48698;45.736;13.926;2023-04-29T11:26:08;97436.91;;;18.56;100.00
52983;BME280;48698;45.736;13.926;2023-04-29T11:31:12;97362.59;;;18.34;100.00
52983;BME280;48698;45.736;13.926;2023-04-29T11:36:26;97320.41;;;18.04;100.00
52983;BME280;48698;45.736;13.926;2023-04-29T11:41:32;97321.16;;;18.37;100.00
52983;BME280;48698;45.736;13.926;2023-04-29T11:46:47;97368.28;;;18.41;100.00
52983;BME280;48698;45.736;13.926;2023-04-29T11:52:01;97201.63;;;17.18;100.00
52983;BME280;48698;45.736;13.926;2023-04-29T11:57:05;97359.66;;;18.58;100.00
52983;BME280;48698;45.736;13.926;2023-04-29T12:02:11;97466.22;;;19.40;100.00
52983;BME280;48698;45.736;13.926;2023-04-29T12:07:15;97314.25;;;18.44;100.00
52983;BME280;48698;45.736;13.926;2023-04-29T12:12:24;97407.75;;;19.90;100.00
52983;BME280;48698;45.736;13.926;2023-04-29T12:17:29;97295.69;;;18.62;100.00
52983;BME280;48698;45.736;13.926;2023-04-29T12:22:33;97390.84;;;19.69;100.00
52983;BME280;48698;45.736;13.926;2023-04-29T12:27:40;97371.69;;;19.63;100.00
52983;BME280;48698;45.736;13.926;2023-04-29T12:32:45;97375.03;;;19.36;100.00
52983;BME280;48698;45.736;13.926;2023-04-29T12:37:50;97437.41;;;19.90;100.00
52983;BME280;48698;45.736;13.926;2023-04-29T12:42:54;97119.88;;;18.03;100.00
52983;BME280;48698;45.736;13.926;2023-04-29T12:47:58;97427.31;;;19.92;100.00
52983;BME280;48698;45.736;13.926;2023-04-29T12:53:08;97405.22;;;19.30;100.00
52983;BME280;48698;45.736;13.926;2023-04-29T12:58:11;97329.69;;;18.72;100.00
52983;BME280;48698;45.736;13.926;2023-04-29T13:03:15;97382.88;;;19.39;100.00
52983;BME280;48698;45.736;13.926;2023-04-29T13:08:21;97430.56;;;20.05;100.00
52983;BME280;48698;45.736;13.926;2023-04-29T13:13:26;97417.81;;;19.98;100.00
52983;BME280;48698;45.736;13.926;2023-04-29T13:18:30;97413.84;;;20.02;100.00
52983;BME280;48698;45.736;13.926;2023-04-29T13:23:35;97359.03;;;19.34;100.00
52983;BME280;48698;45.736;13.926;2023-04-29T13:28:39;97290.50;;;19.48;100.00
52983;BME280;48698;45.736;13.926;2023-04-29T13:33:43;97292.28;;;19.28;100.00
52983;BME280;48698;45.736;13.926;2023-04-29T13:38:47;97382.34;;;20.22;100.00
52983;BME280;48698;45.736;13.926;2023-04-29T13:43:56;97399.25;;;20.04;100.00
52983;BME280;48698;45.736;13.926;2023-04-29T13:49:04;97273.28;;;19.30;100.00
52983;BME280;48698;45.736;13.926;2023-04-29T13:54:28;97275.28;;;19.08;100.00
52983;BME280;48698;45.736;13.926;2023-04-29T13:59:34;97365.03;;;19.76;100.00
52983;BME280;48698;45.736;13.926;2023-04-29T14:04:52;97239.44;;;19.27;100.00
52983;BME280;48698;45.736;13.926;2023-04-29T14:09:56;97353.13;;;20.17;100.00
52983;BME280;48698;45.736;13.926;2023-04-29T14:15:00;97111.94;;;18.90;100.00
52983;BME280;48698;45.736;13.926;2023-04-29T14:20:05;97329.47;;;19.92;100.00
52983;BME280;48698;45.736;13.926;2023-04-29T14:25:18;97352.84;;;20.10;100.00
52983;BME280;48698;45.736;13.926;2023-04-29T14:30:22;97343.31;;;20.16;100.00
52983;BME280;48698;45.736;13.926;2023-04-29T14:35:26;97213.38;;;19.47;100.00
52983;BME280;48698;45.736;13.926;2023-04-29T14:40:29;97306.09;;;20.39;100.00
52983;BME280;48698;45.736;13.926;2023-04-29T14:45:34;97316.44;;;19.58;100.00
52983;BME280;48698;45.736;13.926;2023-04-29T14:50:36;97242.25;;;19.74;100.00
52983;BME280;48698;45.736;13.926;2023-04-29T14:55:40;97245.38;;;19.12;100.00
52983;BME280;48698;45.736;13.926;2023-04-29T15:00:43;97337.19;;;20.24;100.00
52983;BME280;48698;45.736;13.926;2023-04-29T15:05:46;97085.34;;;18.77;100.00
52983;BME280;48698;45.736;13.926;2023-04-29T15:10:48;97145.47;;;19.34;100.00
52983;BME280;48698;45.736;13.926;2023-04-29T15:15:51;97158.69;;;19.08;100.00
52983;BME280;48698;45.736;13.926;2023-04-29T15:20:54;97328.97;;;20.72;100.00
52983;BME280;48698;45.736;13.926;2023-04-29T15:25:57;97346.91;;;19.88;100.00
52983;BME280;48698;45.736;13.926;2023-04-29T15:31:11;97339.25;;;19.83;100.00
52983;BME280;48698;45.736;13.926;2023-04-29T15:36:14;97339.91;;;19.37;100.00
52983;BME280;48698;45.736;13.926;2023-04-29T15:41:17;97344.84;;;19.23;100.00
52983;BME280;48698;45.736;13.926;2023-04-29T15:46:21;97364.88;;;19.49;100.00
52983;BME280;48698;45.736;13.926;2023-04-29T15:51:24;97207.81;;;18.01;100.00
52983;BME280;48698;45.736;13.926;2023-04-29T15:56:27;97369.00;;;18.64;100.00
52983;BME280;48698;45.736;13.926;2023-04-29T16:01:40;97364.31;;;18.96;100.00
52983;BME280;48698;45.736;13.926;2023-04-29T16:06:45;97251.09;;;18.29;100.00
52983;BME280;48698;45.736;13.926;2023-04-29T16:11:48;97199.03;;;17.69;100.00
52983;BME280;48698;45.736;13.926;2023-04-29T16:16:51;97306.38;;;18.01;100.00
52983;BME280;48698;45.736;13.926;2023-04-29T16:21:54;97220.41;;;17.18;100.00
52983;BME280;48698;45.736;13.926;2023-04-29T16:26:57;97176.41;;;16.57;100.00
52983;BME280;48698;45.736;13.926;2023-04-29T16:32:00;97410.19;;;17.70;100.00
52983;BME280;48698;45.736;13.926;2023-04-29T16:37:02;97284.94;;;17.17;100.00
52983;BME280;48698;45.736;13.926;2023-04-29T16:42:06;97346.41;;;17.63;100.00
52983;BME280;48698;45.736;13.926;2023-04-29T16:47:08;97073.00;;;15.45;100.00
52983;BME280;48698;45.736;13.926;2023-04-29T16:52:11;97210.28;;;16.47;100.00
52983;BME280;48698;45.736;13.926;2023-04-29T16:57:24;97093.97;;;15.62;100.00
52983;BME280;48698;45.736;13.926;2023-04-29T17:02:38;97360.22;;;17.47;100.00
52983;BME280;48698;45.736;13.926;2023-04-29T17:07:44;97379.69;;;18.33;100.00
52983;BME280;48698;45.736;13.926;2023-04-29T17:12:57;97421.78;;;19.16;100.00
52983;BME280;48698;45.736;13.926;2023-04-29T17:18:00;97379.97;;;17.89;100.00
52983;BME280;48698;45.736;13.926;2023-04-29T17:23:03;97300.16;;;17.59;100.00
52983;BME280;48698;45.736;13.926;2023-04-29T17:28:05;97400.09;;;17.94;100.00
52983;BME280;48698;45.736;13.926;2023-04-29T17:33:08;97254.25;;;17.30;100.00
52983;BME280;48698;45.736;13.926;2023-04-29T17:38:11;97407.75;;;17.78;100.00
52983;BME280;48698;45.736;13.926;2023-04-29T17:43:14;97425.84;;;17.65;100.00
52983;BME280;48698;45.736;13.926;2023-04-29T17:48:16;97337.44;;;16.87;100.00
52983;BME280;48698;45.736;13.926;2023-04-29T17:53:21;97438.38;;;16.88;100.00
52983;BME280;48698;45.736;13.926;2023-04-29T17:58:23;97239.31;;;15.51;100.00
52983;BME280;48698;45.736;13.926;2023-04-29T18:03:28;97221.72;;;15.60;100.00
52983;BME280;48698;45.736;13.926;2023-04-29T18:08:32;97124.66;;;14.66;100.00
52983;BME280;48698;45.736;13.926;2023-04-29T18:13:34;97322.19;;;15.53;100.00
52983;BME280;48698;45.736;13.926;2023-04-29T18:18:37;97092.78;;;14.05;100.00
52983;BME280;48698;45.736;13.926;2023-04-29T18:23:40;97449.72;;;15.65;100.00
52983;BME280;48698;45.736;13.926;2023-04-29T18:28:44;97424.44;;;15.09;100.00
52983;BME280;48698;45.736;13.926;2023-04-29T18:33:47;97143.63;;;12.64;100.00
52983;BME280;48698;45.736;13.926;2023-04-29T18:38:50;97473.81;;;14.67;100.00
52983;BME280;48698;45.736;13.926;2023-04-29T18:43:53;97474.78;;;14.54;100.00
52983;BME280;48698;45.736;13.926;2023-04-29T18:48:55;97333.94;;;12.46;100.00
52983;BME280;48698;45.736;13.926;2023-04-29T18:54:03;97457.53;;;13.80;100.00
52983;BME280;48698;45.736;13.926;2023-04-29T18:59:06;97493.38;;;13.76;100.00
52983;BME280;48698;45.736;13.926;2023-04-29T19:04:11;97480.41;;;13.03;100.00
52983;BME280;48698;45.736;13.926;2023-04-29T19:09:14;97178.69;;;10.76;100.00
52983;BME280;48698;45.736;13.926;2023-04-29T19:14:16;97439.13;;;12.25;100.00
52983;BME280;48698;45.736;13.926;2023-04-29T19:19:19;97291.59;;;11.13;100.00
52983;BME280;48698;45.736;13.926;2023-04-29T19:24:22;97447.41;;;12.34;100.00
52983;BME280;48698;45.736;13.926;2023-04-29T19:29:25;97184.84;;;10.90;100.00
52983;BME280;48698;45.736;13.926;2023-04-29T19:34:28;97476.88;;;12.31;100.00
52983;BME280;48698;45.736;13.926;2023-04-29T19:39:31;97439.63;;;11.87;100.00
52983;BME280;48698;45.736;13.926;2023-04-29T19:44:35;97476.75;;;11.43;100.00
52983;BME280;48698;45.736;13.926;2023-04-29T19:49:37;97468.19;;;10.92;100.00
52983;BME280;48698;45.736;13.926;2023-04-29T19:54:41;97487.59;;;10.94;100.00
52983;BME280;48698;45.736;13.926;2023-04-29T19:59:44;97331.44;;;10.52;100.00
52983;BME280;48698;45.736;13.926;2023-04-29T20:05:05;97537.03;;;12.06;100.00
52983;BME280;48698;45.736;13.926;2023-04-29T20:10:08;97236.59;;;10.24;100.00
52983;BME280;48698;45.736;13.926;2023-04-29T20:15:11;97298.53;;;10.38;100.00
52983;BME280;48698;45.736;13.926;2023-04-29T20:20:24;97559.78;;;11.49;100.00
52983;BME280;48698;45.736;13.926;2023-04-29T20:25:27;97515.53;;;11.63;100.00
52983;BME280;48698;45.736;13.926;2023-04-29T20:30:31;97482.50;;;11.20;100.00
52983;BME280;48698;45.736;13.926;2023-04-29T20:35:33;97507.22;;;11.38;100.00
52983;BME280;48698;45.736;13.926;2023-04-29T20:40:37;97568.34;;;12.01;100.00
52983;BME280;48698;45.736;13.926;2023-04-29T20:45:49;97366.63;;;10.55;100.00
52983;BME280;48698;45.736;13.926;2023-04-29T20:50:53;97444.56;;;11.03;100.00
52983;BME280;48698;45.736;13.926;2023-04-29T20:56:06;97590.84;;;11.48;100.00
52983;BME280;48698;45.736;13.926;2023-04-29T21:01:10;97509.13;;;11.36;100.00
52983;BME280;48698;45.736;13.926;2023-04-29T21:06:13;97447.09;;;11.04;100.00
52983;BME280;48698;45.736;13.926;2023-04-29T21:11:16;97576.63;;;11.49;100.00
52983;BME280;48698;45.736;13.926;2023-04-29T21:16:19;97534.91;;;11.03;100.00
52983;BME280;48698;45.736;13.926;2023-04-29T21:21:22;97368.81;;;10.16;100.00
52983;BME280;48698;45.736;13.926;2023-04-29T21:26:24;97509.38;;;11.16;100.00
52983;BME280;48698;45.736;13.926;2023-04-29T21:31:30;97481.81;;;11.01;100.00
52983;BME280;48698;45.736;13.926;2023-04-29T21:36:43;97537.31;;;11.70;100.00
52983;BME280;48698;45.736;13.926;2023-04-29T21:41:52;97470.34;;;11.16;100.00
52983;BME280;48698;45.736;13.926;2023-04-29T21:46:55;97440.25;;;11.16;100.00
52983;BME280;48698;45.736;13.926;2023-04-29T21:51:58;97488.06;;;11.78;100.00
52983;BME280;48698;45.736;13.926;2023-04-29T21:57:02;97326.72;;;10.72;100.00
52983;BME280;48698;45.736;13.926;2023-04-29T22:02:04;97587.47;;;12.23;100.00
52983;BME280;48698;45.736;13.926;2023-04-29T22:07:17;97576.25;;;11.86;100.00
52983;BME280;48698;45.736;13.926;2023-04-29T22:12:21;97535.44;;;11.56;100.00
52983;BME280;48698;45.736;13.926;2023-04-29T22:17:23;97572.50;;;11.90;100.00
52983;BME280;48698;45.736;13.926;2023-04-29T22:22:26;97275.03;;;10.00;100.00
52983;BME280;48698;45.736;13.926;2023-04-29T22:27:32;97494.56;;;10.63;100.00
52983;BME280;48698;45.736;13.926;2023-04-29T22:32:35;97512.31;;;10.78;100.00
52983;BME280;48698;45.736;13.926;2023-04-29T22:37:37;97537.31;;;11.38;100.00
52983;BME280;48698;45.736;13.926;2023-04-29T22:42:50;97422.88;;;10.13;100.00
52983;BME280;48698;45.736;13.926;2023-04-29T22:47:53;97534.50;;;10.77;100.00
52983;BME280;48698;45.736;13.926;2023-04-29T22:52:56;97374.41;;;9.60;100.00
52983;BME280;48698;45.736;13.926;2023-04-29T22:57:58;97555.97;;;10.90;100.00
52983;BME280;48698;45.736;13.926;2023-04-29T23:03:01;97383.22;;;9.77;100.00
52983;BME280;48698;45.736;13.926;2023-04-29T23:08:04;97523.59;;;10.16;100.00
52983;BME280;48698;45.736;13.926;2023-04-29T23:13:08;97478.44;;;9.65;100.00
52983;BME280;48698;45.736;13.926;2023-04-29T23:18:10;97423.88;;;9.08;100.00
52983;BME280;48698;45.736;13.926;2023-04-29T23:23:14;97607.66;;;10.50;100.00
52983;BME280;48698;45.736;13.926;2023-04-29T23:28:26;97312.78;;;8.69;100.00
52983;BME280;48698;45.736;13.926;2023-04-29T23:33:29;97483.97;;;9.60;100.00
52983;BME280;48698;45.736;13.926;2023-04-29T23:38:32;97304.63;;;8.73;100.00
52983;BME280;48698;45.736;13.926;2023-04-29T23:43:53;97568.38;;;10.40;100.00
52983;BME280;48698;45.736;13.926;2023-04-29T23:49:14;97586.97;;;10.22;100.00
52983;BME280;48698;45.736;13.926;2023-04-29T23:54:17;97285.53;;;8.31;100.00
52983;BME280;48698;45.736;13.926;2023-04-29T23:59:19;97549.25;;;10.16;100.00
